Time;durP1;ratioP1;P1;durP2;ratioP2;P2;SDS_P1;SDS_P2;PMS_P1;PMS_P2;Temp;Humidity;BMP_temperature;BMP_pressure;BME280_temperature;BME280_humidity;BME280_pressure;Samples;Min_cycle;Max_cycle;Signal;HPM_P1;HPM_P2
2022/08/21 00:01:30;;;;;;;14.88;4.75;;;26.50;78.50;;;;;;5032913;28;20021;-73
2022/08/21 00:03:56;;;;;;;9.05;4.80;;;26.50;78.40;;;;;;5064730;28;20048;-73
2022/08/21 00:06:23;;;;;;;10.60;4.13;;;26.50;78.50;;;;;;5032492;28;20489;-72
2022/08/21 00:08:51;;;;;;;9.85;4.43;;;26.50;78.60;;;;;;5032857;28;20030;-73
2022/08/21 00:11:17;;;;;;;9.77;4.10;;;26.50;78.80;;;;;;5032778;28;20462;-73
2022/08/21 00:13:42;;;;;;;8.88;4.38;;;26.50;78.60;;;;;;5032911;28;20025;-73
2022/08/21 00:16:09;;;;;;;9.05;4.28;;;26.50;78.70;;;;;;5032787;28;20067;-73
2022/08/21 00:18:35;;;;;;;8.27;4.18;;;26.50;78.50;;;;;;5032533;28;20124;-73
2022/08/21 00:21:01;;;;;;;9.57;4.63;;;26.50;78.50;;;;;;5032569;28;20089;-72
2022/08/21 00:23:27;;;;;;;9.23;4.43;;;26.50;78.60;;;;;;5032608;28;20044;-74
2022/08/21 00:25:52;;;;;;;16.10;4.90;;;26.50;78.70;;;;;;5032347;28;20033;-73
2022/08/21 00:28:18;;;;;;;11.00;4.63;;;26.50;78.70;;;;;;5032490;28;20051;-72
2022/08/21 00:30:44;;;;;;;10.85;5.00;;;26.40;78.60;;;;;;5032410;28;20057;-74
2022/08/21 00:33:11;;;;;;;9.35;4.47;;;26.30;79.10;;;;;;5032474;28;20439;-73
2022/08/21 00:35:39;;;;;;;9.70;4.57;;;26.30;79.10;;;;;;5032228;28;20479;-74
2022/08/21 00:38:07;;;;;;;11.77;4.75;;;26.30;79.30;;;;;;5032428;28;20057;-73
2022/08/21 00:40:41;;;;;;;10.38;4.78;;;26.20;79.10;;;;;;5032464;28;20024;-72
2022/08/21 00:43:10;;;;;;;7.90;4.50;;;26.20;79.40;;;;;;5032478;28;20025;-72
2022/08/21 00:45:36;;;;;;;8.30;4.53;;;26.20;79.60;;;;;;5032250;28;20144;-72
2022/08/21 00:48:02;;;;;;;9.70;4.40;;;26.20;79.60;;;;;;5032382;28;20096;-72
2022/08/21 00:50:33;;;;;;;14.05;4.70;;;26.20;79.40;;;;;;5032433;28;20032;-74
2022/08/21 00:53:01;;;;;;;8.45;4.28;;;26.30;79.10;;;;;;5064059;28;20118;-73
2022/08/21 00:55:29;;;;;;;7.15;4.43;;;26.30;79.00;;;;;;5032051;28;20050;-73
2022/08/21 00:57:58;;;;;;;11.25;4.53;;;26.30;79.00;;;;;;5032090;28;20021;-73
2022/08/21 01:00:29;;;;;;;9.13;4.70;;;26.20;79.10;;;;;;5032307;28;20040;-72
2022/08/21 01:02:59;;;;;;;10.82;4.85;;;26.20;79.20;;;;;;5032253;28;20471;-72
2022/08/21 01:05:26;;;;;;;10.85;4.18;;;26.20;79.40;;;;;;5031934;28;20096;-71
2022/08/21 01:07:52;;;;;;;10.45;3.97;;;26.10;79.50;;;;;;5032278;28;20109;-74
2022/08/21 01:10:18;;;;;;;11.35;4.82;;;26.10;79.40;;;;;;5033833;28;20144;-73
2022/08/21 01:12:44;;;;;;;10.57;4.45;;;26.10;79.60;;;;;;5036151;28;20037;-72
2022/08/21 01:15:10;;;;;;;9.32;4.55;;;26.10;79.10;;;;;;5035810;28;20017;-73
2022/08/21 01:17:36;;;;;;;8.15;4.05;;;26.20;79.10;;;;;;5035796;28;20111;-73
2022/08/21 01:20:07;;;;;;;9.18;4.03;;;26.10;78.60;;;;;;5035935;28;20378;-73
2022/08/21 01:22:32;;;;;;;12.07;4.47;;;26.10;78.90;;;;;;5035906;28;20352;-73
2022/08/21 01:24:58;;;;;;;10.55;3.92;;;26.10;78.70;;;;;;5035751;28;20040;-74
2022/08/21 01:27:24;;;;;;;8.23;3.38;;;26.10;78.50;;;;;;5035872;28;20057;-75
2022/08/21 01:30:08;;;;;;;6.85;3.78;;;26.10;78.40;;;;;;5035630;28;20120;-73
2022/08/21 01:32:35;;;;;;;12.52;4.13;;;26.10;78.20;;;;;;5035745;28;20029;-74
2022/08/21 01:35:01;;;;;;;8.48;3.83;;;26.10;78.00;;;;;;5035638;28;20026;-72
2022/08/21 01:37:27;;;;;;;5.78;3.47;;;26.00;77.80;;;;;;5035846;28;20036;-74
2022/08/21 01:39:53;;;;;;;8.82;3.80;;;26.10;77.80;;;;;;5035840;28;20030;-73
2022/08/21 01:42:19;;;;;;;10.20;3.78;;;26.00;77.80;;;;;;5035776;28;20112;-73
2022/08/21 01:44:45;;;;;;;7.38;3.83;;;26.00;77.80;;;;;;5035950;28;20036;-74
2022/08/21 01:47:12;;;;;;;6.93;3.30;;;26.00;77.80;;;;;;5035298;28;20017;-73
2022/08/21 01:49:39;;;;;;;9.80;3.85;;;25.90;77.80;;;;;;5035681;28;20092;-74
2022/08/21 01:52:06;;;;;;;9.98;4.10;;;25.90;77.60;;;;;;5035431;28;20104;-73
2022/08/21 01:54:32;;;;;;;10.98;3.78;;;25.90;77.90;;;;;;5035297;28;20033;-73
2022/08/21 01:56:59;;;;;;;9.93;4.28;;;25.90;78.00;;;;;;5035201;28;20455;-73
2022/08/21 01:59:25;;;;;;;7.90;3.70;;;25.90;78.10;;;;;;5033971;28;20044;-74
2022/08/21 02:01:53;;;;;;;10.90;4.25;;;25.90;78.30;;;;;;5035428;28;20017;-73
2022/08/21 02:04:19;;;;;;;11.23;4.22;;;25.80;78.20;;;;;;5035391;28;20394;-73
2022/08/21 02:06:46;;;;;;;8.07;3.75;;;25.80;78.60;;;;;;5035183;28;20032;-74
2022/08/21 02:09:13;;;;;;;8.27;4.07;;;25.70;78.80;;;;;;5035283;28;20053;-74
2022/08/21 02:11:40;;;;;;;7.20;3.40;;;25.70;78.60;;;;;;5035616;28;20029;-73
2022/08/21 02:14:14;;;;;;;7.05;3.55;;;25.70;78.70;;;;;;5035067;28;20048;-74
2022/08/21 02:16:42;;;;;;;10.32;3.65;;;25.70;78.70;;;;;;5035090;28;20071;-74
2022/08/21 02:19:09;;;;;;;7.55;3.55;;;25.70;78.90;;;;;;5035171;28;20490;-73
2022/08/21 02:21:34;;;;;;;10.13;4.05;;;25.70;78.90;;;;;;5034810;28;20036;-72
2022/08/21 02:24:01;;;;;;;8.02;3.80;;;25.70;78.90;;;;;;5035271;28;20025;-73
2022/08/21 02:26:27;;;;;;;6.82;3.78;;;25.70;79.00;;;;;;5066588;28;20095;-73
2022/08/21 02:28:52;;;;;;;11.15;3.72;;;25.70;79.00;;;;;;5034825;28;20441;-73
2022/08/21 02:31:18;;;;;;;9.57;3.58;;;25.60;79.20;;;;;;5034829;28;20112;-72
2022/08/21 02:33:44;;;;;;;8.73;3.28;;;25.70;79.20;;;;;;5034704;28;20493;-75
2022/08/21 02:36:11;;;;;;;9.20;3.67;;;25.60;79.40;;;;;;5066556;28;20505;-74
2022/08/21 02:38:38;;;;;;;9.75;3.97;;;25.60;79.30;;;;;;5034573;28;20128;-74
2022/08/21 02:41:07;;;;;;;9.40;4.20;;;25.50;79.20;;;;;;5034516;28;20026;-74
2022/08/21 02:43:33;;;;;;;10.13;3.80;;;25.50;79.50;;;;;;5034364;28;20032;-73
2022/08/21 02:45:59;;;;;;;8.68;3.63;;;25.50;79.60;;;;;;5034348;28;20368;-75
2022/08/21 02:48:28;;;;;;;7.03;3.72;;;25.40;80.00;;;;;;5066253;28;20454;-74
2022/08/21 02:50:59;;;;;;;10.90;3.80;;;25.30;79.90;;;;;;5034472;28;20040;-74
2022/08/21 02:53:26;;;;;;;9.40;3.75;;;25.30;80.30;;;;;;5066357;28;20025;-74
2022/08/21 02:55:53;;;;;;;9.73;4.10;;;25.30;80.10;;;;;;5034479;28;20033;-73
2022/08/21 02:58:22;;;;;;;9.40;4.15;;;25.30;80.20;;;;;;5034247;28;20387;-74
2022/08/21 03:00:48;;;;;;;10.13;4.07;;;25.30;80.30;;;;;;5034429;28;20140;-74
2022/08/21 03:03:14;;;;;;;8.43;3.38;;;25.20;80.40;;;;;;5034269;28;20521;-75
2022/08/21 03:05:40;;;;;;;7.90;3.72;;;25.20;80.40;;;;;;5033876;28;20026;-73
2022/08/21 03:08:10;;;;;;;7.85;3.75;;;25.20;80.60;;;;;;5034030;28;20021;-74
2022/08/21 03:10:40;;;;;;;6.90;3.42;;;25.20;80.60;;;;;;5033875;28;20148;-73
2022/08/21 03:13:06;;;;;;;8.40;3.67;;;25.20;81.60;;;;;;5034115;28;20029;-74
2022/08/21 03:15:32;;;;;;;7.45;3.45;;;25.10;80.50;;;;;;5034007;28;20088;-73
2022/08/21 03:17:58;;;;;;;6.82;3.70;;;25.20;80.50;;;;;;5065856;28;20040;-73
2022/08/21 03:20:26;;;;;;;9.70;3.70;;;25.20;80.40;;;;;;5033535;28;20063;-73
2022/08/21 03:22:53;;;;;;;10.43;3.97;;;25.20;80.20;;;;;;5033728;28;20108;-75
2022/08/21 03:25:23;;;;;;;8.45;3.70;;;25.20;80.00;;;;;;5033468;28;20467;-75
2022/08/21 03:27:49;;;;;;;8.02;3.35;;;25.20;81.00;;;;;;5033571;28;20111;-73
2022/08/21 03:30:17;;;;;;;6.72;3.40;;;25.20;80.00;;;;;;5033649;28;20052;-75
2022/08/21 03:32:42;;;;;;;8.50;3.70;;;25.20;80.00;;;;;;5031510;28;20029;-75
2022/08/21 03:35:09;;;;;;;8.27;4.00;;;25.20;80.20;;;;;;5033360;28;20196;-73
2022/08/21 03:37:35;;;;;;;8.57;3.60;;;25.20;80.00;;;;;;5033437;28;20025;-73
2022/08/21 03:40:04;;;;;;;7.13;3.60;;;25.20;80.00;;;;;;5033417;28;20028;-73
2022/08/21 03:42:30;;;;;;;9.65;3.58;;;25.20;80.20;;;;;;5033251;28;20026;-75
2022/08/21 03:44:56;;;;;;;8.52;3.88;;;25.20;80.20;;;;;;5033408;28;20390;-74
2022/08/21 03:47:22;;;;;;;9.43;3.72;;;25.10;80.90;;;;;;5033344;28;20021;-73
2022/08/21 03:49:48;;;;;;;12.00;4.20;;;25.00;81.10;;;;;;5033179;28;20097;-73
2022/08/21 03:52:14;;;;;;;6.18;3.60;;;25.00;81.40;;;;;;5033436;28;20033;-72
2022/08/21 03:54:41;;;;;;;8.65;4.10;;;25.00;81.60;;;;;;5032937;28;20018;-74
2022/08/21 03:57:08;;;;;;;10.93;4.20;;;24.90;81.90;;;;;;5033324;28;20034;-73
2022/08/21 03:59:34;;;;;;;7.32;3.80;;;24.90;82.00;;;;;;5033154;28;20379;-73
2022/08/21 04:02:04;;;;;;;9.30;4.40;;;24.80;82.10;;;;;;5032817;28;20048;-74
2022/08/21 04:04:30;;;;;;;9.93;3.78;;;24.70;82.10;;;;;;5064911;28;20065;-74
2022/08/21 04:06:57;;;;;;;7.50;3.58;;;24.70;82.20;;;;;;5033121;28;20053;-73
2022/08/21 04:09:23;;;;;;;10.85;3.80;;;24.70;82.30;;;;;;5033101;28;20489;-71
2022/08/21 04:11:50;;;;;;;7.68;3.10;;;24.70;81.80;;;;;;5032935;28;20026;-72
2022/08/21 04:14:16;;;;;;;10.15;2.90;;;24.60;81.80;;;;;;5032756;28;20028;-72
2022/08/21 04:16:43;;;;;;;7.57;3.38;;;24.60;81.80;;;;;;5032833;28;20025;-74
2022/08/21 04:19:10;;;;;;;9.10;3.28;;;24.60;81.50;;;;;;5032612;28;20034;-74
2022/08/21 04:21:37;;;;;;;9.13;3.20;;;24.60;82.00;;;;;;5032833;28;20486;-73
2022/08/21 04:24:04;;;;;;;8.95;3.42;;;24.70;81.50;;;;;;5032672;28;20036;-74
2022/08/21 04:26:30;;;;;;;7.65;3.50;;;24.70;81.30;;;;;;5032390;28;20041;-73
2022/08/21 04:28:57;;;;;;;11.57;3.90;;;24.60;81.20;;;;;;5064697;28;20379;-72
2022/08/21 04:31:24;;;;;;;8.93;3.42;;;24.60;81.80;;;;;;5032621;28;20025;-72
2022/08/21 04:33:50;;;;;;;9.75;3.78;;;24.70;81.30;;;;;;5064823;28;20430;-74
2022/08/21 04:36:16;;;;;;;7.32;3.20;;;24.70;81.10;;;;;;5033034;28;20056;-72
2022/08/21 04:38:42;;;;;;;8.50;3.15;;;24.70;80.90;;;;;;5033033;28;20141;-73
2022/08/21 04:41:08;;;;;;;7.93;2.70;;;24.70;80.50;;;;;;5033346;28;20041;-72
2022/08/21 04:43:34;;;;;;;6.28;2.78;;;24.80;79.90;;;;;;5033069;28;20036;-73
2022/08/21 04:46:00;;;;;;;7.32;2.80;;;24.80;79.30;;;;;;5032629;28;20030;-74
2022/08/21 04:48:26;;;;;;;7.93;2.75;;;24.80;79.00;;;;;;5033201;28;20036;-74
2022/08/21 04:50:58;;;;;;;11.30;3.40;;;24.90;78.50;;;;;;5033521;28;20498;-72
2022/08/21 04:53:35;;;;;;;4.90;2.30;;;24.90;78.40;;;;;;5033336;28;20561;-73
2022/08/21 04:56:08;;;;;;;8.43;2.80;;;24.90;78.10;;;;;;5033214;28;20049;-73
2022/08/21 04:58:34;;;;;;;7.50;2.88;;;24.80;78.00;;;;;;5032885;28;20045;-73
2022/08/21 05:01:01;;;;;;;8.77;2.80;;;24.90;77.80;;;;;;5033022;28;20065;-74
2022/08/21 05:03:28;;;;;;;9.32;2.90;;;24.90;77.80;;;;;;5033381;28;20131;-73
2022/08/21 05:05:54;;;;;;;9.73;2.92;;;24.90;77.70;;;;;;5033067;28;20022;-75
2022/08/21 05:08:23;;;;;;;5.70;2.72;;;25.00;77.50;;;;;;5032806;28;20043;-73
2022/08/21 05:10:49;;;;;;;8.00;2.70;;;25.00;77.30;;;;;;5032831;28;20021;-73
2022/08/21 05:13:15;;;;;;;7.60;3.13;;;25.00;77.30;;;;;;5032882;28;20029;-73
2022/08/21 05:15:42;;;;;;;5.25;2.75;;;25.00;77.10;;;;;;5032633;28;20021;-72
2022/08/21 05:18:08;;;;;;;8.85;2.72;;;25.00;76.90;;;;;;5032477;28;20120;-75
2022/08/21 05:20:34;;;;;;;11.48;3.10;;;25.00;77.20;;;;;;5032722;28;20105;-74
2022/08/21 05:23:01;;;;;;;10.68;3.35;;;24.90;76.90;;;;;;5032721;28;20037;-73
2022/08/21 05:25:27;;;;;;;6.07;2.78;;;24.90;76.80;;;;;;5032524;28;20022;-74
2022/08/21 05:27:53;;;;;;;8.57;3.20;;;24.90;76.70;;;;;;5033396;28;20061;-74
2022/08/21 05:30:20;;;;;;;8.50;2.75;;;24.80;76.50;;;;;;5032925;28;20096;-73
2022/08/21 05:32:47;;;;;;;7.20;2.78;;;24.80;76.30;;;;;;5032870;28;20075;-74
2022/08/21 05:35:13;;;;;;;8.88;2.70;;;24.80;75.90;;;;;;5031781;28;20107;-72
2022/08/21 05:37:39;;;;;;;9.95;2.63;;;24.90;75.60;;;;;;5031921;28;20029;-73
2022/08/21 05:40:07;;;;;;;9.13;2.58;;;24.90;75.30;;;;;;5031869;28;20026;-73
2022/08/21 05:42:33;;;;;;;8.70;2.40;;;25.00;75.00;;;;;;5030588;28;20030;-75
2022/08/21 05:44:59;;;;;;;11.07;2.75;;;25.00;74.70;;;;;;5032078;28;20045;-74
2022/08/21 05:47:25;;;;;;;6.53;2.80;;;25.00;74.50;;;;;;5031981;28;20084;-71
2022/08/21 05:49:50;;;;;;;7.97;2.90;;;25.20;74.30;;;;;;5031895;28;20075;-72
2022/08/21 05:52:20;;;;;;;6.50;2.40;;;25.40;73.90;;;;;;5032218;28;20076;-73
2022/08/21 05:54:46;;;;;;;5.72;2.35;;;25.60;73.50;;;;;;5031770;28;20030;-73
2022/08/21 05:57:12;;;;;;;7.07;2.67;;;25.70;73.00;;;;;;5034304;28;20101;-72
2022/08/21 05:59:37;;;;;;;8.82;2.55;;;25.90;72.50;;;;;;5035555;28;20037;-74
2022/08/21 06:02:04;;;;;;;9.27;3.13;;;26.10;72.30;;;;;;5035330;28;20459;-75
2022/08/21 06:04:29;;;;;;;7.00;2.78;;;26.20;71.90;;;;;;5034110;28;20061;-74
2022/08/21 06:06:55;;;;;;;7.30;2.75;;;26.30;71.70;;;;;;5034947;28;20348;-73
2022/08/21 06:09:21;;;;;;;7.18;2.58;;;26.50;71.40;;;;;;5033784;28;20032;-75
2022/08/21 06:11:47;;;;;;;5.32;2.63;;;26.60;71.10;;;;;;5035189;28;20498;-74
2022/08/21 06:14:16;;;;;;;12.57;2.80;;;26.80;70.70;;;;;;5035033;28;20097;-74
2022/08/21 06:16:42;;;;;;;8.02;3.08;;;27.00;70.10;;;;;;5034860;28;20112;-73
2022/08/21 06:19:08;;;;;;;7.63;3.10;;;27.20;69.60;;;;;;5034925;28;20037;-74
2022/08/21 06:21:33;;;;;;;8.93;3.10;;;27.30;69.10;;;;;;5034935;28;20044;-74
2022/08/21 06:23:59;;;;;;;7.78;3.30;;;27.40;69.00;;;;;;5035004;28;20037;-74
2022/08/21 06:26:25;;;;;;;7.70;3.00;;;27.50;68.50;;;;;;5034818;28;20049;-74
2022/08/21 06:28:50;;;;;;;7.43;2.72;;;27.60;68.30;;;;;;5034754;28;20394;-73
2022/08/21 06:31:22;;;;;;;10.40;2.60;;;27.80;68.00;;;;;;5034770;28;20029;-73
2022/08/21 06:33:48;;;;;;;6.63;2.90;;;27.90;67.30;;;;;;5034702;28;20079;-74
2022/08/21 06:36:14;;;;;;;5.63;2.40;;;28.00;66.80;;;;;;5034944;28;20458;-74
2022/08/21 06:38:40;;;;;;;6.50;2.60;;;28.10;66.40;;;;;;5066673;28;20526;-74
2022/08/21 06:41:06;;;;;;;4.63;2.40;;;28.20;65.90;;;;;;5034828;28;20084;-74
2022/08/21 06:43:32;;;;;;;6.35;2.90;;;28.10;65.60;;;;;;5034510;28;20037;-73
2022/08/21 06:45:58;;;;;;;6.00;3.00;;;28.20;65.60;;;;;;5034610;28;20026;-74
2022/08/21 06:48:24;;;;;;;5.85;2.33;;;28.10;65.40;;;;;;5034751;28;20026;-73
2022/08/21 06:50:50;;;;;;;5.28;2.55;;;28.20;65.30;;;;;;5034541;28;20117;-74
2022/08/21 06:53:19;;;;;;;6.95;2.70;;;28.20;64.70;;;;;;5034876;28;20060;-73
2022/08/21 06:55:47;;;;;;;6.55;2.70;;;28.30;65.00;;;;;;5034221;28;20018;-74
2022/08/21 06:58:16;;;;;;;7.22;2.30;;;28.40;64.50;;;;;;5032932;28;20030;-74
2022/08/21 07:00:47;;;;;;;6.25;2.60;;;28.40;64.40;;;;;;5034364;28;20025;-72
2022/08/21 07:03:30;;;;;;;6.13;2.50;;;28.40;63.90;;;;;;5034436;28;20105;-72
2022/08/21 07:05:58;;;;;;;4.63;2.42;;;28.50;63.60;;;;;;5034514;28;20030;-73
2022/08/21 07:08:25;;;;;;;5.05;2.45;;;28.50;63.70;;;;;;5033216;28;20052;-74
2022/08/21 07:10:52;;;;;;;9.20;2.72;;;28.60;63.10;;;;;;5034195;28;20037;-72
2022/08/21 07:13:18;;;;;;;6.22;2.47;;;28.60;63.10;;;;;;5034045;28;20108;-74
2022/08/21 07:15:44;;;;;;;6.28;2.40;;;28.70;62.80;;;;;;5034069;28;20116;-73
2022/08/21 07:18:11;;;;;;;7.05;2.83;;;28.90;62.50;;;;;;5034183;28;20108;-75
2022/08/21 07:20:37;;;;;;;7.32;3.15;;;29.10;62.10;;;;;;5033827;28;20033;-74
2022/08/21 07:23:09;;;;;;;5.18;2.45;;;29.10;61.70;;;;;;5034127;28;20097;-74
2022/08/21 07:25:35;;;;;;;4.90;2.13;;;29.30;61.60;;;;;;5033743;28;20044;-75
2022/08/21 07:28:00;;;;;;;5.15;2.40;;;29.30;61.20;;;;;;5034048;28;20025;-75
2022/08/21 07:30:27;;;;;;;5.72;2.42;;;29.40;60.60;;;;;;5033990;28;20053;-73
2022/08/21 07:32:53;;;;;;;10.40;2.45;;;29.30;60.80;;;;;;5033983;28;20462;-74
2022/08/21 07:35:20;;;;;;;7.35;2.80;;;29.30;60.70;;;;;;5033561;28;20504;-73
2022/08/21 07:37:45;;;;;;;6.82;2.70;;;29.40;60.60;;;;;;5033579;28;20100;-73
2022/08/21 07:40:12;;;;;;;7.43;2.70;;;29.40;60.20;;;;;;5033147;28;20471;-73
2022/08/21 07:42:46;;;;;;;6.30;2.67;;;29.40;60.10;;;;;;5033160;28;20490;-73
2022/08/21 07:45:13;;;;;;;8.20;2.40;;;29.50;60.10;;;;;;5033070;28;20037;-74
2022/08/21 07:47:39;;;;;;;5.88;2.40;;;29.60;59.80;;;;;;5033291;28;20517;-73
2022/08/21 07:50:06;;;;;;;5.57;2.45;;;29.60;59.60;;;;;;5033230;28;20041;-73
2022/08/21 07:52:32;;;;;;;5.53;2.60;;;29.50;59.40;;;;;;5033450;28;20501;-74
2022/08/21 07:54:58;;;;;;;4.35;2.30;;;29.60;59.80;;;;;;5033059;28;20422;-72
2022/08/21 07:57:24;;;;;;;8.10;2.63;;;29.60;59.20;;;;;;5032993;28;20025;-72
2022/08/21 07:59:50;;;;;;;10.00;2.92;;;29.50;59.00;;;;;;5033099;28;20060;-72
2022/08/21 08:02:27;;;;;;;7.93;2.70;;;29.50;59.10;;;;;;5032938;28;20466;-75
2022/08/21 08:04:53;;;;;;;7.22;2.67;;;29.50;59.40;;;;;;5064725;28;20017;-73
2022/08/21 08:07:19;;;;;;;7.68;2.70;;;29.50;59.10;;;;;;5032705;28;20026;-74
2022/08/21 08:09:45;;;;;;;6.72;2.67;;;29.40;59.30;;;;;;5033104;28;20033;-74
2022/08/21 08:12:11;;;;;;;8.00;3.05;;;29.40;59.10;;;;;;5034875;28;20029;-72
2022/08/21 08:14:37;;;;;;;7.68;2.95;;;29.50;59.10;;;;;;5034412;28;20039;-71
2022/08/21 08:17:03;;;;;;;6.25;2.60;;;29.60;59.00;;;;;;5033170;28;20474;-72
2022/08/21 08:19:29;;;;;;;5.90;2.70;;;29.60;59.10;;;;;;5032435;28;20482;-72
2022/08/21 08:21:55;;;;;;;6.28;2.60;;;29.70;58.90;;;;;;5032864;28;20079;-73
2022/08/21 08:24:20;;;;;;;6.22;2.97;;;29.60;58.80;;;;;;5032621;28;20418;-72
2022/08/21 08:26:47;;;;;;;6.32;2.42;;;29.50;58.70;;;;;;5032464;28;20536;-73
2022/08/21 08:29:12;;;;;;;5.78;2.95;;;29.50;59.00;;;;;;5032764;28;20072;-73
2022/08/21 08:31:38;;;;;;;11.55;2.90;;;29.50;59.00;;;;;;5031122;28;20026;-72
2022/08/21 08:34:04;;;;;;;5.47;2.38;;;29.50;59.10;;;;;;5032589;28;20052;-74
2022/08/21 08:36:35;;;;;;;7.03;2.70;;;29.40;58.60;;;;;;5032325;28;20061;-72
2022/08/21 08:39:05;;;;;;;13.52;3.03;;;29.40;59.00;;;;;;5032511;28;20033;-74
2022/08/21 08:41:32;;;;;;;4.80;2.28;;;29.30;58.40;;;;;;5064301;28;20025;-73
2022/08/21 08:44:01;;;;;;;5.55;2.60;;;29.30;58.90;;;;;;5032515;28;20327;-74
2022/08/21 08:46:44;;;;;;;8.68;2.75;;;29.40;59.10;;;;;;5032200;28;20087;-73
2022/08/21 08:49:47;;;;;;;6.72;2.55;;;29.30;58.50;;;;;;5032646;28;20112;-72
2022/08/21 08:52:33;;;;;;;7.65;5.22;;;29.40;58.30;;;;;;5032320;28;20040;-72
2022/08/21 08:55:07;;;;;;;6.10;2.95;;;29.40;58.70;;;;;;5032096;28;20436;-73
2022/08/21 08:57:34;;;;;;;9.27;3.05;;;29.50;58.90;;;;;;5032153;28;20032;-72
2022/08/21 09:00:09;;;;;;;6.53;2.38;;;29.50;58.60;;;;;;5032102;28;20124;-73
2022/08/21 09:02:39;;;;;;;9.00;2.50;;;29.60;58.00;;;;;;5032421;28;20029;-74
2022/08/21 09:05:07;;;;;;;5.10;2.53;;;29.50;58.10;;;;;;5032235;28;20051;-72
2022/08/21 09:07:51;;;;;;;8.18;2.67;;;29.60;58.00;;;;;;5032399;28;20017;-75
2022/08/21 09:10:43;;;;;;;7.90;2.28;;;29.60;57.30;;;;;;5032227;28;20021;-71
2022/08/21 09:13:51;;;;;;;9.27;2.60;;;29.70;57.30;;;;;;5024465;28;20041;-72
2022/08/21 09:16:35;;;;;;;5.13;2.30;;;29.70;56.70;;;;;;5032051;28;20032;-73
2022/08/21 09:19:21;;;;;;;5.55;2.50;;;29.80;56.10;;;;;;5032174;28;20077;-73
2022/08/21 09:22:10;;;;;;;9.18;2.38;;;29.90;55.60;;;;;;5032153;28;20048;-72
2022/08/21 09:24:43;;;;;;;4.28;2.15;;;30.00;54.60;;;;;;5032215;28;20029;-74
2022/08/21 09:27:15;;;;;;;7.80;2.53;;;30.00;55.60;;;;;;5031966;28;20507;-72
2022/08/21 09:29:50;;;;;;;7.30;2.70;;;30.00;55.60;;;;;;5032186;28;20026;-74
2022/08/21 09:32:23;;;;;;;6.70;2.70;;;30.10;54.10;;;;;;5035320;28;20470;-73
2022/08/21 09:35:17;;;;;;;8.82;2.80;;;30.30;55.70;;;;;;5036151;28;20071;-74
2022/08/21 09:37:45;;;;;;;6.00;2.30;;;30.40;55.20;;;;;;5066844;28;20029;-72
2022/08/21 09:40:32;;;;;;;8.73;2.53;;;30.50;54.60;;;;;;5036039;28;20113;-73
2022/08/21 09:43:19;;;;;;;7.05;2.80;;;30.60;52.80;;;;;;5036099;28;20064;-73
2022/08/21 09:45:46;;;;;;;5.28;2.50;;;30.70;54.20;;;;;;5067788;28;20042;-71
2022/08/21 09:48:13;;;;;;;5.38;2.10;;;30.60;53.70;;;;;;5035648;28;20018;-74
2022/08/21 09:50:39;;;;;;;4.05;2.30;;;30.80;53.60;;;;;;5035854;28;20475;-74
2022/08/21 09:53:14;;;;;;;6.55;2.38;;;30.90;53.90;;;;;;5035885;28;20026;-74
2022/08/21 09:58:38;;;;;;;5.53;2.15;;;31.00;51.50;;;;;;5035624;28;20430;-74
2022/08/21 10:01:06;;;;;;;6.95;2.40;;;31.10;53.00;;;;;;5035457;28;20094;-74
2022/08/21 10:03:32;;;;;;;7.43;2.58;;;31.20;52.60;;;;;;5035469;28;20043;-74
2022/08/21 10:06:08;;;;;;;6.50;2.72;;;31.20;52.50;;;;;;5035278;28;20025;-73
2022/08/21 10:08:36;;;;;;;4.70;2.20;;;31.40;52.60;;;;;;5035060;28;20375;-72
2022/08/21 10:11:07;;;;;;;6.88;2.35;;;31.50;52.80;;;;;;5035109;28;20089;-74
2022/08/21 10:14:05;;;;;;;5.75;3.33;;;31.60;52.60;;;;;;5035222;28;20116;-72
2022/08/21 10:16:52;;;;;;;15.20;12.63;;;31.60;51.80;;;;;;5034400;28;20095;-73
2022/08/21 10:19:49;;;;;;;6.43;2.92;;;31.60;50.80;;;;;;5035184;28;20046;-74
2022/08/21 10:22:29;;;;;;;7.43;2.67;;;31.70;50.30;;;;;;5033019;28;20354;-76
2022/08/21 10:25:17;;;;;;;5.75;2.35;;;31.70;50.50;;;;;;5035377;28;20379;-74
2022/08/21 10:28:03;;;;;;;5.88;2.72;;;31.80;50.50;;;;;;5034618;28;20053;-73
2022/08/21 10:30:47;;;;;;;7.25;2.53;;;31.90;49.90;;;;;;5034574;28;20164;-72
2022/08/21 10:33:28;;;;;;;4.93;2.25;;;32.00;50.80;;;;;;5035820;28;20029;-72
2022/08/21 10:36:19;;;;;;;5.75;2.42;;;32.20;49.70;;;;;;5034842;28;20036;-74
2022/08/21 10:39:12;;;;;;;9.70;2.60;;;32.30;51.20;;;;;;5034473;28;20033;-73
2022/08/21 10:41:59;;;;;;;8.25;2.25;;;32.30;48.60;;;;;;5034560;28;20026;-72
2022/08/21 10:44:38;;;;;;;5.10;2.13;;;32.30;48.00;;;;;;5034567;28;20022;-73
2022/08/21 10:47:24;;;;;;;6.75;2.70;;;32.50;47.70;;;;;;5034534;28;20021;-73
2022/08/21 10:50:29;;;;;;;6.63;2.10;;;32.50;47.60;;;;;;5034275;28;20049;-73
2022/08/21 10:53:15;;;;;;;5.53;2.00;;;32.60;48.30;;;;;;5032248;28;20498;-73
2022/08/21 10:56:07;;;;;;;6.50;2.13;;;32.60;46.60;;;;;;5031986;28;20113;-74
2022/08/21 10:58:45;;;;;;;5.53;2.00;;;32.50;46.30;;;;;;5034235;28;20087;-73
2022/08/21 11:01:18;;;;;;;5.72;2.35;;;32.50;46.30;;;;;;5066440;28;20056;-74
2022/08/21 11:03:47;;;;;;;6.03;2.17;;;32.50;47.20;;;;;;5034679;28;20034;-73
2022/08/21 11:06:36;;;;;;;3.97;2.17;;;32.50;47.10;;;;;;5034343;28;20025;-74
2022/08/21 11:09:17;;;;;;;4.95;1.85;;;32.80;45.50;;;;;;5034121;28;20028;-74
2022/08/21 11:11:52;;;;;;;4.05;2.00;;;33.00;44.80;;;;;;5034158;28;20101;-74
2022/08/21 11:14:41;;;;;;;4.97;1.92;;;33.20;44.20;;;;;;5034006;28;20450;-73
2022/08/21 11:17:13;;;;;;;3.33;1.70;;;33.30;43.90;;;;;;5034080;28;20359;-72
2022/08/21 11:19:48;;;;;;;3.83;1.83;;;33.30;43.50;;;;;;5034076;28;20538;-73
2022/08/21 11:22:39;;;;;;;3.38;1.55;;;33.50;44.10;;;;;;5033834;28;20033;-73
2022/08/21 11:25:35;;;;;;;6.93;2.67;;;33.50;44.40;;;;;;5033233;28;20041;-74
2022/08/21 11:28:43;;;;;;;4.57;1.80;;;33.50;43.00;;;;;;5033601;28;20037;-73
2022/08/21 11:32:00;;;;;;;6.18;1.98;;;33.60;42.90;;;;;;5033351;28;20116;-73
2022/08/21 11:34:57;;;;;;;5.63;3.22;;;33.70;42.40;;;;;;5032687;28;20042;-73
2022/08/21 11:37:34;;;;;;;4.25;1.83;;;33.70;42.60;;;;;;5033818;28;20035;-75
2022/08/21 11:40:12;;;;;;;5.93;1.70;;;33.70;42.40;;;;;;5033917;28;20478;-73
2022/08/21 11:42:56;;;;;;;4.28;1.60;;;33.70;41.70;;;;;;5033870;28;20028;-73
2022/08/21 11:45:30;;;;;;;;;;;33.80;42.50;;;;;;5033918;28;20474;-72
2022/08/21 11:48:09;;;;;;;3.65;1.70;;;33.80;41.80;;;;;;5033657;28;20358;-72
2022/08/21 11:50:36;;;;;;;3.83;1.48;;;33.80;42.30;;;;;;5033519;28;20033;-74
2022/08/21 11:53:24;;;;;;;5.10;1.90;;;33.90;41.80;;;;;;5033402;28;20029;-73
2022/08/21 11:55:56;;;;;;;4.90;2.08;;;33.90;41.40;;;;;;5033332;28;20022;-74
2022/08/21 11:58:32;;;;;;;5.20;2.35;;;33.80;43.20;;;;;;5033287;28;20116;-73
2022/08/21 12:01:06;;;;;;;6.50;2.47;;;33.80;44.90;;;;;;5033350;28;20554;-73
2022/08/21 12:03:40;;;;;;;10.45;2.53;;;33.70;46.10;;;;;;5033233;28;20029;-74
2022/08/21 12:06:11;;;;;;;6.10;2.50;;;33.70;46.90;;;;;;5033294;28;20025;-76
2022/08/21 12:08:42;;;;;;;5.93;2.13;;;33.50;47.10;;;;;;5033320;28;20100;-73
2022/08/21 12:11:17;;;;;;;6.95;2.15;;;33.30;47.20;;;;;;5033226;28;20025;-72
2022/08/21 12:14:14;;;;;;;5.47;1.95;;;33.20;46.50;;;;;;5033127;28;20071;-73
2022/08/21 12:16:47;;;;;;;5.95;2.15;;;33.00;47.40;;;;;;5032570;28;20038;-74
2022/08/21 12:19:29;;;;;;;5.03;2.10;;;32.80;46.40;;;;;;5032974;28;20091;-73
2022/08/21 12:22:14;;;;;;;5.75;1.85;;;32.70;47.50;;;;;;5033052;28;20041;-72
2022/08/21 12:24:47;;;;;;;5.20;1.75;;;32.60;47.80;;;;;;5032665;28;20506;-74
2022/08/21 12:27:13;;;;;;;6.70;1.92;;;32.60;47.50;;;;;;5032809;28;20049;-75
2022/08/21 12:29:49;;;;;;;5.45;1.90;;;32.70;47.70;;;;;;5033033;28;20375;-75
2022/08/21 12:32:15;;;;;;;7.97;2.00;;;32.70;48.10;;;;;;5032974;28;20048;-74
2022/08/21 12:35:00;;;;;;;5.50;1.90;;;32.70;48.30;;;;;;5033038;28;20471;-74
2022/08/21 12:37:39;;;;;;;3.10;1.58;;;32.60;47.20;;;;;;5032802;28;20585;-76
2022/08/21 12:40:17;;;;;;;6.18;1.70;;;32.50;46.90;;;;;;5033039;28;20029;-74
2022/08/21 12:42:49;;;;;;;4.00;1.95;;;32.30;47.30;;;;;;5032927;28;20026;-73
2022/08/21 12:45:20;;;;;;;3.92;1.70;;;32.30;47.20;;;;;;5032681;28;20021;-73
2022/08/21 12:47:58;;;;;;;3.20;1.70;;;32.30;46.40;;;;;;5032521;28;20033;-73
2022/08/21 12:50:44;;;;;;;4.90;1.60;;;32.30;45.30;;;;;;5032703;28;20030;-73
2022/08/21 12:53:34;;;;;;;3.70;1.50;;;32.50;45.10;;;;;;5033030;28;20031;-72
2022/08/21 12:56:08;;;;;;;4.07;1.80;;;32.60;45.00;;;;;;5032622;28;20041;-73
2022/08/21 12:58:34;;;;;;;4.90;1.77;;;32.70;45.60;;;;;;5064432;28;20033;-72
2022/08/21 13:01:07;;;;;;;3.47;1.42;;;32.80;44.90;;;;;;5032557;28;20486;-73
2022/08/21 13:03:36;;;;;;;3.67;1.60;;;32.80;44.10;;;;;;5032591;28;20029;-74
2022/08/21 13:06:04;;;;;;;4.35;1.48;;;32.90;43.60;;;;;;5065414;28;20489;-74
2022/08/21 13:08:32;;;;;;;3.28;1.38;;;33.00;42.80;;;;;;5036667;28;20022;-74